Time;durP1;ratioP1;P1;durP2;ratioP2;P2;SDS_P1;SDS_P2;PMS_P1;PMS_P2;Temp;Humidity;BMP_temperature;BMP_pressure;BME280_temperature;BME280_humidity;BME280_pressure;Samples;Min_cycle;Max_cycle;Signal;HPM_P1;HPM_P2
2024/02/23 00:02:18;;;;;;;;;;;;;;;18.24;60.76;100600.22;7391274;19;1863;-76
2024/02/23 00:04:46;;;;;;;;;;;;;;;18.19;60.83;100585.56;7390265;19;1611;-75
2024/02/23 00:07:15;;;;;;;;;;;;;;;18.16;61.24;100601.88;7393622;19;1409;-75
2024/02/23 00:09:43;;;;;;;;;;;;;;;18.15;61.23;100594.84;7392888;19;1242;-75
2024/02/23 00:12:13;;;;;;;;;;;;;;;18.10;61.34;100597.88;7380604;19;1477;-75
2024/02/23 00:14:44;;;;;;;;;;;;;;;18.16;61.53;100596.50;7389712;19;1405;-75
2024/02/23 00:17:12;;;;;;;;;;;;;;;18.15;61.25;100590.31;7393598;19;1699;-76
2024/02/23 00:19:41;;;;;;;;;;;;;;;18.16;61.23;100585.81;7393917;19;1750;-75
2024/02/23 00:22:10;;;;;;;;;;;;;;;18.14;61.32;100593.97;7392841;19;1859;-75
2024/02/23 00:24:40;;;;;;;;;;;;;;;18.16;61.21;100581.28;7390158;19;1693;-76
2024/02/23 00:27:09;;;;;;;;;;;;;;;18.19;61.08;100581.03;7394214;19;1840;-76
2024/02/23 00:29:37;;;;;;;;;;;;;;;18.10;61.34;100587.19;7391028;19;1301;-76
2024/02/23 00:32:08;;;;;;;;;;;;;;;18.04;61.50;100583.22;7392512;19;1907;-76
2024/02/23 00:34:37;;;;;;;;;;;;;;;18.06;61.53;100572.38;7393272;19;1629;-76
2024/02/23 00:37:05;;;;;;;;;;;;;;;18.10;61.49;100584.50;7394156;19;1695;-76
2024/02/23 00:39:34;;;;;;;;;;;;;;;18.18;61.09;100571.31;7393407;19;1636;-75
2024/02/23 00:42:02;;;;;;;;;;;;;;;18.23;60.99;100586.97;7392830;19;1892;-76
2024/02/23 00:44:30;;;;;;;;;;;;;;;18.19;60.90;100569.50;7395413;19;1232;-76
2024/02/23 00:47:01;;;;;;;;;;;;;;;18.21;61.05;100580.91;7397703;19;1476;-76
2024/02/23 00:49:32;;;;;;;;;;;;;;;18.14;61.11;100572.56;7405517;19;1738;-75
2024/02/23 00:52:00;;;;;;;;;;;;;;;18.20;61.16;100555.94;7420248;19;1436;-76
2024/02/23 00:54:28;;;;;;;;;;;;;;;18.07;61.50;100571.41;7396929;19;1756;-76
2024/02/23 00:56:57;;;;;;;;;;;;;;;18.07;61.56;100560.72;7395405;19;1297;-75
2024/02/23 00:59:25;;;;;;;;;;;;;;;18.19;61.52;100559.63;7394743;19;1381;-77
2024/02/23 01:01:53;;;;;;;;;;;;;;;18.12;61.38;100563.81;7394959;19;1853;-76
2024/02/23 01:04:22;;;;;;;;;;;;;;;18.19;61.09;100558.78;7393324;19;1465;-76
2024/02/23 01:06:53;;;;;;;;;;;;;;;18.21;60.92;100540.75;7397363;19;1504;-75
2024/02/23 01:09:21;;;;;;;;;;;;;;;18.10;61.25;100549.72;7397721;19;1504;-76
2024/02/23 01:11:51;;;;;;;;;;;;;;;18.12;61.39;100547.75;7384568;19;1058;-76
2024/02/23 01:14:19;;;;;;;;;;;;;;;18.02;61.63;100546.88;7389667;19;1933;-75
2024/02/23 01:16:47;;;;;;;;;;;;;;;18.02;61.90;100557.56;7393811;19;1690;-76
2024/02/23 01:19:16;;;;;;;;;;;;;;;18.08;61.46;100554.34;7393299;19;1757;-75
2024/02/23 01:21:44;;;;;;;;;;;;;;;18.05;61.65;100542.09;7391656;19;1821;-75
2024/02/23 01:24:15;;;;;;;;;;;;;;;18.12;61.62;100561.13;7393888;19;1693;-76
2024/02/23 01:26:43;;;;;;;;;;;;;;;18.08;61.48;100551.69;7392469;19;1207;-75
2024/02/23 01:29:12;;;;;;;;;;;;;;;18.03;61.56;100559.28;7391788;19;1733;-75
2024/02/23 01:31:40;;;;;;;;;;;;;;;18.02;61.56;100541.53;7392373;19;1607;-75
2024/02/23 01:34:08;;;;;;;;;;;;;;;18.07;61.31;100531.28;7392885;19;1461;-75
2024/02/23 01:36:38;;;;;;;;;;;;;;;18.06;61.47;100537.59;7391576;19;1124;-75
2024/02/23 01:39:07;;;;;;;;;;;;;;;18.04;61.53;100544.91;7391643;19;1852;-76
2024/02/23 01:41:38;;;;;;;;;;;;;;;18.01;61.87;100535.34;7388838;19;1890;-76
2024/02/23 01:44:06;;;;;;;;;;;;;;;18.01;61.66;100531.81;7390250;19;1813;-76
2024/02/23 01:46:35;;;;;;;;;;;;;;;18.06;61.60;100542.94;7389151;19;1765;-75
2024/02/23 01:49:03;;;;;;;;;;;;;;;18.02;61.64;100528.16;7390973;19;1504;-76
2024/02/23 01:51:32;;;;;;;;;;;;;;;18.02;61.64;100530.81;7390559;19;1548;-75
2024/02/23 01:54:00;;;;;;;;;;;;;;;17.96;61.82;100515.31;7388901;19;1313;-75
2024/02/23 01:56:29;;;;;;;;;;;;;;;18.00;61.85;100519.41;7389089;19;1578;-76
2024/02/23 01:59:02;;;;;;;;;;;;;;;17.98;61.93;100542.78;7389205;19;1654;-75
2024/02/23 02:01:31;;;;;;;;;;;;;;;18.04;61.77;100531.53;7390607;19;1626;-75
2024/02/23 02:03:59;;;;;;;;;;;;;;;18.12;61.57;100522.84;7385421;19;1855;-75
2024/02/23 02:06:28;;;;;;;;;;;;;;;18.08;61.74;100528.47;7390523;19;1413;-75
2024/02/23 02:08:56;;;;;;;;;;;;;;;18.08;61.48;100517.78;7390311;19;1650;-75
2024/02/23 02:11:24;;;;;;;;;;;;;;;18.11;61.53;100524.66;7389810;19;2165;-75
2024/02/23 02:13:53;;;;;;;;;;;;;;;18.52;60.58;100516.59;7373581;19;1721;-75
2024/02/23 02:16:24;;;;;;;;;;;;;;;19.24;58.47;100515.38;7387577;19;1409;-75
2024/02/23 02:18:52;;;;;;;;;;;;;;;19.97;56.59;100529.03;7388597;19;1643;-75
2024/02/23 02:21:23;;;;;;;;;;;;;;;19.98;56.71;100521.84;7388840;19;1398;-75
2024/02/23 02:23:51;;;;;;;;;;;;;;;20.12;56.13;100513.28;7387037;19;2033;-75
2024/02/23 02:26:20;;;;;;;;;;;;;;;20.11;56.36;100525.00;7389585;19;1401;-76
2024/02/23 02:28:48;;;;;;;;;;;;;;;20.14;56.16;100515.84;7388484;19;1207;-75
2024/02/23 02:31:16;;;;;;;;;;;;;;;20.07;56.52;100526.31;7388407;19;1535;-75
2024/02/23 02:33:47;;;;;;;;;;;;;;;20.21;56.20;100522.28;7389425;19;1821;-75
2024/02/23 02:36:16;;;;;;;;;;;;;;;20.15;56.41;100528.25;7386450;19;1493;-75
2024/02/23 02:38:44;;;;;;;;;;;;;;;20.22;56.13;100524.81;7387620;19;1853;-76
2024/02/23 02:41:12;;;;;;;;;;;;;;;20.24;56.11;100516.63;7389169;19;1717;-75
2024/02/23 02:43:41;;;;;;;;;;;;;;;20.22;56.24;100524.00;7387718;19;1862;-75
2024/02/23 02:46:09;;;;;;;;;;;;;;;20.22;56.38;100535.56;7389673;19;1486;-76
2024/02/23 02:48:38;;;;;;;;;;;;;;;20.18;56.32;100517.22;7391217;19;1117;-76
2024/02/23 02:51:09;;;;;;;;;;;;;;;20.21;56.38;100523.16;7388836;19;1445;-76
2024/02/23 02:53:37;;;;;;;;;;;;;;;20.29;56.12;100529.59;7390328;19;1746;-76
2024/02/23 02:56:08;;;;;;;;;;;;;;;20.37;55.76;100532.38;7390527;19;1523;-76
2024/02/23 02:58:36;;;;;;;;;;;;;;;20.29;56.14;100525.06;7388971;19;1703;-76
2024/02/23 03:01:05;;;;;;;;;;;;;;;20.31;56.09;100538.34;7389005;19;1633;-76
2024/02/23 03:03:34;;;;;;;;;;;;;;;20.27;56.22;100527.91;7388953;19;1869;-76
2024/02/23 03:06:02;;;;;;;;;;;;;;;20.35;56.15;100529.00;7388056;19;1404;-75
2024/02/23 03:08:33;;;;;;;;;;;;;;;20.40;56.06;100524.03;7389127;19;1846;-75
2024/02/23 03:11:02;;;;;;;;;;;;;;;20.42;55.83;100530.09;7387757;19;1607;-75
2024/02/23 03:13:31;;;;;;;;;;;;;;;20.44;55.65;100526.25;7373235;19;1960;-75
2024/02/23 03:16:00;;;;;;;;;;;;;;;20.44;55.66;100536.16;7393306;19;1592;-75
2024/02/23 03:18:28;;;;;;;;;;;;;;;20.51;55.71;100531.84;7395041;19;1441;-75
2024/02/23 03:20:57;;;;;;;;;;;;;;;19.85;55.68;100409.47;7394946;19;1416;-75
2024/02/23 03:23:26;;;;;;;;;;;;;;;20.57;55.47;100525.91;7395436;19;1854;-76
2024/02/23 03:25:57;;;;;;;;;;;;;;;20.47;55.73;100527.78;7395913;19;1467;-75
2024/02/23 03:28:25;;;;;;;;;;;;;;;20.52;55.80;100530.88;7396810;19;1687;-76
2024/02/23 03:30:53;;;;;;;;;;;;;;;20.57;55.66;100528.59;7397870;19;1049;-76
2024/02/23 03:33:22;;;;;;;;;;;;;;;20.60;55.62;100531.00;7396015;19;1821;-75
2024/02/23 03:35:50;;;;;;;;;;;;;;;20.63;55.38;100533.38;7396878;19;1428;-76
2024/02/23 03:38:18;;;;;;;;;;;;;;;20.58;55.74;100524.06;7398331;19;1215;-75
2024/02/23 03:40:47;;;;;;;;;;;;;;;20.59;55.72;100532.00;7398858;19;1389;-75
2024/02/23 03:43:17;;;;;;;;;;;;;;;20.52;55.88;100520.13;7394132;19;1849;-75
2024/02/23 03:45:46;;;;;;;;;;;;;;;20.57;55.65;100533.09;7395543;19;1382;-75
2024/02/23 03:48:15;;;;;;;;;;;;;;;20.56;55.73;100521.50;7392958;19;1382;-76
2024/02/23 03:50:43;;;;;;;;;;;;;;;20.54;55.80;100528.03;7395136;19;1458;-76
2024/02/23 03:53:11;;;;;;;;;;;;;;;20.71;55.35;100529.94;7393469;19;1373;-76
2024/02/23 03:55:39;;;;;;;;;;;;;;;20.64;55.46;100521.63;7394581;19;1489;-76
2024/02/23 03:58:08;;;;;;;;;;;;;;;20.67;55.25;100517.78;7395845;19;1524;-77
2024/02/23 04:00:39;;;;;;;;;;;;;;;20.26;56.54;100536.97;7395475;19;1409;-75
2024/02/23 04:03:08;;;;;;;;;;;;;;;19.85;57.44;100549.84;7393320;19;1867;-75
2024/02/23 04:05:37;;;;;;;;;;;;;;;19.53;58.08;100534.09;7391346;19;1480;-76
2024/02/23 04:08:06;;;;;;;;;;;;;;;19.33;58.42;100544.00;7394976;19;1152;-75
2024/02/23 04:10:34;;;;;;;;;;;;;;;19.08;58.96;100540.09;7395692;19;979;-75
2024/02/23 04:13:03;;;;;;;;;;;;;;;18.95;59.17;100526.13;7377744;19;1583;-76
2024/02/23 04:15:31;;;;;;;;;;;;;;;18.88;59.16;100532.03;7392058;19;1831;-75
2024/02/23 04:18:03;;;;;;;;;;;;;;;18.86;59.20;100535.81;7393414;19;1453;-76
2024/02/23 04:20:32;;;;;;;;;;;;;;;18.86;59.15;100519.75;7393925;19;1437;-77
2024/02/23 04:23:00;;;;;;;;;;;;;;;19.04;58.88;100544.88;7393433;19;1851;-76
2024/02/23 04:25:28;;;;;;;;;;;;;;;19.30;58.75;100528.22;7393674;19;1370;-74
2024/02/23 04:27:57;;;;;;;;;;;;;;;19.48;58.23;100518.44;7390924;19;1616;-76
2024/02/23 04:30:25;;;;;;;;;;;;;;;19.62;57.76;100537.75;7393304;19;1529;-75
2024/02/23 04:32:53;;;;;;;;;;;;;;;19.68;57.52;100531.81;7393655;19;1767;-76
2024/02/23 04:35:24;;;;;;;;;;;;;;;19.71;57.58;100531.53;7393208;19;1418;-76
2024/02/23 04:37:52;;;;;;;;;;;;;;;19.63;57.67;100524.16;7394176;19;1661;-75
2024/02/23 04:40:21;;;;;;;;;;;;;;;19.65;57.71;100521.34;7390365;19;1740;-75
2024/02/23 04:42:49;;;;;;;;;;;;;;;19.60;57.78;100547.78;7390161;19;1867;-76
2024/02/23 04:45:18;;;;;;;;;;;;;;;19.61;57.66;100536.88;7391527;19;1474;-75
2024/02/23 04:47:48;;;;;;;;;;;;;;;18.94;57.52;100428.81;7392569;19;1837;-75
2024/02/23 04:50:16;;;;;;;;;;;;;;;19.57;57.74;100545.38;7392322;19;1820;-76
2024/02/23 04:52:47;;;;;;;;;;;;;;;19.58;57.90;100531.00;7392375;19;1653;-75
2024/02/23 04:55:15;;;;;;;;;;;;;;;19.62;57.90;100561.91;7391539;19;1418;-75
2024/02/23 04:57:44;;;;;;;;;;;;;;;19.64;57.70;100546.50;7392076;19;1744;-76
2024/02/23 05:00:13;;;;;;;;;;;;;;;19.68;57.68;100542.53;7388988;19;1741;-76
2024/02/23 05:02:41;;;;;;;;;;;;;;;19.69;57.66;100546.91;7391552;19;1837;-76
2024/02/23 05:05:10;;;;;;;;;;;;;;;19.65;57.68;100540.13;7391548;19;1401;-76
2024/02/23 05:07:38;;;;;;;;;;;;;;;19.67;57.68;100552.41;7390543;19;1934;-76
2024/02/23 05:10:10;;;;;;;;;;;;;;;19.66;57.74;100544.53;7392634;19;1606;-76
2024/02/23 05:12:38;;;;;;;;;;;;;;;19.71;57.84;100612.00;7391443;19;1476;-75
2024/02/23 05:15:07;;;;;;;;;;;;;;;19.02;57.58;100430.75;7382717;19;1209;-75
2024/02/23 05:17:35;;;;;;;;;;;;;;;19.79;57.76;100563.00;7390021;19;1558;-75
2024/02/23 05:20:07;;;;;;;;;;;;;;;19.75;57.83;100565.13;7390577;19;1218;-75
2024/02/23 05:22:36;;;;;;;;;;;;;;;19.74;57.97;100552.72;7391773;19;1208;-76
2024/02/23 05:25:04;;;;;;;;;;;;;;;19.46;58.52;100555.28;7389228;19;1841;-75
2024/02/23 05:27:35;;;;;;;;;;;;;;;19.14;59.36;100571.69;7387702;19;1863;-74
2024/02/23 05:30:04;;;;;;;;;;;;;;;19.02;59.56;100589.72;7390039;19;1795;-75
2024/02/23 05:32:32;;;;;;;;;;;;;;;18.87;59.87;100591.97;7390823;19;1425;-75
2024/02/23 05:35:01;;;;;;;;;;;;;;;18.83;59.72;100579.81;7390350;19;1518;-75
2024/02/23 05:37:29;;;;;;;;;;;;;;;19.20;59.18;100592.56;7389018;19;1493;-74
2024/02/23 05:39:59;;;;;;;;;;;;;;;19.56;58.11;100590.13;7390536;19;1749;-75
2024/02/23 05:42:27;;;;;;;;;;;;;;;19.55;58.14;100580.38;7390381;19;1535;-75
2024/02/23 05:44:58;;;;;;;;;;;;;;;19.56;57.85;100583.94;7385381;19;1849;-75
2024/02/23 05:47:27;;;;;;;;;;;;;;;19.53;57.76;100589.56;7387595;19;1391;-75
2024/02/23 05:49:56;;;;;;;;;;;;;;;19.56;57.89;100581.25;7385697;19;1690;-76
2024/02/23 05:52:24;;;;;;;;;;;;;;;19.60;57.78;100598.75;7386630;19;1532;-75
2024/02/23 05:54:55;;;;;;;;;;;;;;;19.53;57.78;100602.97;7387522;19;1338;-75
2024/02/23 05:57:24;;;;;;;;;;;;;;;19.60;57.60;100601.44;7386155;19;1507;-75
2024/02/23 05:59:52;;;;;;;;;;;;;;;19.64;57.70;100602.84;7385346;19;1807;-75
2024/02/23 06:02:23;;;;;;;;;;;;;;;19.66;57.62;100590.13;7386586;19;1481;-75
2024/02/23 06:04:51;;;;;;;;;;;;;;;19.69;57.49;100605.91;7388446;19;1863;-76
2024/02/23 06:07:21;;;;;;;;;;;;;;;19.61;57.56;100619.19;7386288;19;1472;-75
2024/02/23 06:09:50;;;;;;;;;;;;;;;19.74;57.33;100595.66;7390149;19;1255;-75
2024/02/23 06:12:18;;;;;;;;;;;;;;;19.85;56.92;100603.50;7389549;19;1472;-75
2024/02/23 06:14:46;;;;;;;;;;;;;;;19.91;56.99;100606.59;7377241;19;1271;-75
2024/02/23 06:17:12;;;;;;;;;;;;;;;19.94;56.99;100595.59;7389860;19;1947;-74
2024/02/23 06:19:43;;;;;;;;;;;;;;;20.00;56.62;100613.81;7388804;19;1802;-74
2024/02/23 06:22:13;;;;;;;;;;;;;;;19.99;56.69;100609.41;7388694;19;1776;-74
2024/02/23 06:24:41;;;;;;;;;;;;;;;20.04;56.64;100612.50;7388591;19;1856;-74
2024/02/23 06:27:10;;;;;;;;;;;;;;;20.15;56.32;100609.63;7388532;19;1493;-75
2024/02/23 06:29:38;;;;;;;;;;;;;;;20.22;56.11;100616.13;7387162;19;1461;-76
2024/02/23 06:32:07;;;;;;;;;;;;;;;19.84;57.12;100623.28;7387795;19;1369;-75
2024/02/23 06:34:36;;;;;;;;;;;;;;;19.64;57.67;100617.09;7389739;19;1642;-75
2024/02/23 06:37:06;;;;;;;;;;;;;;;19.55;57.77;100609.03;7388668;19;1757;-75
2024/02/23 06:39:35;;;;;;;;;;;;;;;19.41;57.89;100616.53;7387383;19;1500;-75
2024/02/23 06:42:04;;;;;;;;;;;;;;;19.31;58.36;100602.28;7388538;19;1398;-75
2024/02/23 06:44:32;;;;;;;;;;;;;;;19.21;58.66;100636.28;7387805;19;1846;-75
2024/02/23 06:47:00;;;;;;;;;;;;;;;19.25;58.57;100621.63;7387219;19;1482;-75
2024/02/23 06:49:29;;;;;;;;;;;;;;;19.52;58.02;100601.28;7387391;19;1292;-75
2024/02/23 06:51:57;;;;;;;;;;;;;;;19.84;57.12;100633.19;7388406;19;1400;-75
2024/02/23 06:54:28;;;;;;;;;;;;;;;19.94;56.87;100622.44;7387385;19;1496;-75
2024/02/23 06:56:57;;;;;;;;;;;;;;;19.60;57.86;100604.94;7388199;19;1314;-75
2024/02/23 06:59:26;;;;;;;;;;;;;;;19.34;58.50;100610.06;7386287;19;1485;-75
2024/02/23 07:01:55;;;;;;;;;;;;;;;19.16;58.71;100622.44;7384837;19;1480;-75
2024/02/23 07:04:23;;;;;;;;;;;;;;;19.04;58.66;100598.47;7386605;19;1838;-75
2024/02/23 07:06:52;;;;;;;;;;;;;;;19.13;58.42;100601.31;7385610;19;1455;-75
2024/02/23 07:09:20;;;;;;;;;;;;;;;19.53;57.59;100609.19;7387001;19;1790;-75
2024/02/23 07:11:51;;;;;;;;;;;;;;;19.81;56.83;100607.47;7386073;19;1668;-75
2024/02/23 07:14:21;;;;;;;;;;;;;;;19.88;55.12;100623.03;7375730;19;960;-76
2024/02/23 07:16:51;;;;;;;;;;;;;;;19.61;56.63;100606.63;7387270;19;1752;-75
2024/02/23 07:19:19;;;;;;;;;;;;;;;19.39;56.26;100602.41;7388253;19;1386;-76
2024/02/23 07:21:48;;;;;;;;;;;;;;;19.31;56.33;100607.66;7386978;19;1535;-75
2024/02/23 07:24:17;;;;;;;;;;;;;;;19.18;56.07;100605.25;7386710;19;1854;-75
2024/02/23 07:26:45;;;;;;;;;;;;;;;19.16;55.25;100601.88;7386637;19;1443;-75
2024/02/23 07:29:16;;;;;;;;;;;;;;;19.44;53.83;100602.84;7386243;19;1507;-75
2024/02/23 07:31:45;;;;;;;;;;;;;;;19.80;52.72;100600.44;7386992;19;1506;-75
2024/02/23 07:34:13;;;;;;;;;;;;;;;19.66;52.47;100608.91;7388307;19;1685;-75
2024/02/23 07:36:42;;;;;;;;;;;;;;;19.53;53.75;100611.88;7389235;19;1371;-75
2024/02/23 07:39:11;;;;;;;;;;;;;;;19.43;53.60;100606.50;7387809;19;1920;-76
2024/02/23 07:41:39;;;;;;;;;;;;;;;19.31;53.12;100599.59;7389322;19;1919;-75
2024/02/23 07:44:08;;;;;;;;;;;;;;;19.26;52.64;100612.59;7389436;19;1860;-76
2024/02/23 07:46:39;;;;;;;;;;;;;;;19.22;53.00;100612.03;7389407;19;1897;-75
2024/02/23 07:49:08;;;;;;;;;;;;;;;19.58;51.95;100606.94;7388565;19;1398;-76
2024/02/23 07:51:36;;;;;;;;;;;;;;;19.93;51.01;100589.38;7389309;19;1598;-75
2024/02/23 07:54:05;;;;;;;;;;;;;;;19.82;51.18;100595.75;7388864;19;1499;-75
2024/02/23 07:56:33;;;;;;;;;;;;;;;19.64;52.26;100610.88;7394885;19;1501;-76
2024/02/23 07:59:03;;;;;;;;;;;;;;;19.46;52.31;100606.22;7397559;19;1675;-76
2024/02/23 08:01:31;;;;;;;;;;;;;;;19.30;52.72;100587.19;7400379;19;1788;-75
2024/02/23 08:04:02;;;;;;;;;;;;;;;19.24;52.45;100609.22;7403335;19;1838;-76
2024/02/23 08:06:31;;;;;;;;;;;;;;;19.18;52.52;100620.47;7403321;19;1833;-75
2024/02/23 08:08:59;;;;;;;;;;;;;;;19.36;51.77;100618.81;7405932;19;1804;-76
2024/02/23 08:11:27;;;;;;;;;;;;;;;19.79;50.63;100609.44;7403698;19;1657;-76
2024/02/23 08:13:56;;;;;;;;;;;;;;;19.94;49.97;100607.19;7398476;19;1652;-75
2024/02/23 08:16:24;;;;;;;;;;;;;;;19.71;50.90;100609.34;7402565;19;1856;-75
2024/02/23 08:18:52;;;;;;;;;;;;;;;19.54;51.67;100607.38;7406648;19;1693;-75
2024/02/23 08:21:23;;;;;;;;;;;;;;;19.36;51.57;100600.03;7403410;19;1580;-76
2024/02/23 08:23:52;;;;;;;;;;;;;;;19.30;51.67;100619.38;7403758;19;1810;-76
2024/02/23 08:26:20;;;;;;;;;;;;;;;19.26;51.86;100585.78;7406215;19;1756;-75
2024/02/23 08:28:48;;;;;;;;;;;;;;;19.23;52.00;100602.97;7404315;19;1100;-76
2024/02/23 08:31:17;;;;;;;;;;;;;;;19.44;51.71;100584.09;7406104;19;1566;-75
2024/02/23 08:33:46;;;;;;;;;;;;;;;19.94;50.44;100606.34;7405390;19;1343;-75
2024/02/23 08:36:14;;;;;;;;;;;;;;;19.91;50.09;100603.94;7402302;19;1496;-75
2024/02/23 08:38:48;;;;;;;;;;;;;;;19.63;51.07;100591.22;7403976;19;1850;-75
2024/02/23 08:41:16;;;;;;;;;;;;;;;19.43;52.15;100587.72;7401496;19;1841;-75
2024/02/23 08:43:45;;;;;;;;;;;;;;;19.35;52.28;100603.69;7397450;19;1827;-75
2024/02/23 08:46:13;;;;;;;;;;;;;;;19.26;52.71;100612.59;7396268;19;1852;-76
2024/02/23 08:48:41;;;;;;;;;;;;;;;19.19;53.07;100606.09;7397418;19;1513;-75
2024/02/23 08:51:10;;;;;;;;;;;;;;;19.32;53.25;100597.75;7396884;19;1555;-75
2024/02/23 08:53:38;;;;;;;;;;;;;;;19.73;51.64;100601.16;7396043;19;1676;-75
2024/02/23 08:56:09;;;;;;;;;;;;;;;19.96;50.70;100610.56;7396534;19;1456;-75
2024/02/23 08:58:38;;;;;;;;;;;;;;;19.58;51.43;100595.38;7394037;19;1929;-75
2024/02/23 09:01:06;;;;;;;;;;;;;;;19.43;52.08;100600.31;7393924;19;1391;-75
2024/02/23 09:03:35;;;;;;;;;;;;;;;19.36;52.20;100597.34;7397174;19;1673;-75
2024/02/23 09:06:03;;;;;;;;;;;;;;;19.26;52.38;100602.72;7396993;19;1845;-75
2024/02/23 09:08:32;;;;;;;;;;;;;;;19.21;52.59;100607.63;7396541;19;1573;-75
2024/02/23 09:11:00;;;;;;;;;;;;;;;19.22;52.97;100614.72;7396739;19;1637;-75
2024/02/23 09:13:31;;;;;;;;;;;;;;;19.61;51.95;100612.00;7394286;19;1413;-75
2024/02/23 09:16:00;;;;;;;;;;;;;;;20.02;51.44;100612.66;7380699;19;1551;-75
2024/02/23 09:18:28;;;;;;;;;;;;;;;19.64;52.17;100618.94;7392943;19;1817;-74
2024/02/23 09:20:57;;;;;;;;;;;;;;;19.50;52.51;100611.28;7391032;19;1477;-75
2024/02/23 09:23:25;;;;;;;;;;;;;;;19.40;52.81;100605.97;7388032;19;1610;-75
2024/02/23 09:25:53;;;;;;;;;;;;;;;19.30;53.01;100619.38;7390430;19;1920;-75
2024/02/23 09:28:21;;;;;;;;;;;;;;;19.25;53.40;100619.78;7389202;19;1458;-75
2024/02/23 09:30:52;;;;;;;;;;;;;;;19.20;53.52;100597.06;7388989;19;2434;-75
2024/02/23 09:33:21;;;;;;;;;;;;;;;19.41;53.34;100624.56;7391164;19;1453;-74
2024/02/23 09:35:49;;;;;;;;;;;;;;;19.89;52.39;100611.28;7391268;19;1581;-75
2024/02/23 09:38:17;;;;;;;;;;;;;;;19.76;52.61;100615.13;7388462;19;1528;-75
2024/02/23 09:40:46;;;;;;;;;;;;;;;19.54;53.28;100610.06;7389909;19;1505;-75
2024/02/23 09:43:15;;;;;;;;;;;;;;;19.44;53.69;100615.41;7389230;19;1480;-75
2024/02/23 09:45:43;;;;;;;;;;;;;;;19.36;54.01;100608.09;7386673;19;1846;-76
2024/02/23 09:48:15;;;;;;;;;;;;;;;19.33;54.07;100605.66;7389878;19;1291;-75
2024/02/23 09:50:44;;;;;;;;;;;;;;;19.33;54.00;100605.66;7386307;19;1386;-75
2024/02/23 09:53:14;;;;;;;;;;;;;;;19.27;54.24;100608.91;7389600;19;1116;-75
2024/02/23 09:55:42;;;;;;;;;;;;;;;19.38;54.31;100589.19;7384989;19;1825;-75
2024/02/23 09:58:11;;;;;;;;;;;;;;;19.80;53.55;100607.63;7387922;19;1809;-75
2024/02/23 10:00:40;;;;;;;;;;;;;;;19.69;53.34;100603.22;7387604;19;1557;-75
2024/02/23 10:03:09;;;;;;;;;;;;;;;19.57;53.99;100593.66;7384256;19;1510;-75
2024/02/23 10:05:40;;;;;;;;;;;;;;;19.32;53.90;100579.88;7384145;19;1851;-75
2024/02/23 10:08:09;;;;;;;;;;;;;;;19.27;53.86;100606.25;7386459;19;1241;-75
2024/02/23 10:10:37;;;;;;;;;;;;;;;19.33;54.14;100597.63;7386886;19;1754;-74
2024/02/23 10:13:07;;;;;;;;;;;;;;;19.31;54.17;100594.25;7385058;19;1536;-75
2024/02/23 10:15:36;;;;;;;;;;;;;;;19.30;54.33;100587.19;7372638;19;1488;-74
2024/02/23 10:18:04;;;;;;;;;;;;;;;19.41;54.47;100570.09;7387325;19;1417;-75
2024/02/23 10:20:33;;;;;;;;;;;;;;;19.83;53.54;100584.03;7386610;19;1493;-75
2024/02/23 10:23:03;;;;;;;;;;;;;;;19.79;53.56;100581.78;7390703;19;1466;-75
2024/02/23 10:25:32;;;;;;;;;;;;;;;19.58;54.05;100587.31;7389421;19;1859;-75
2024/02/23 10:28:00;;;;;;;;;;;;;;;19.41;54.62;100567.41;7388744;19;1460;-76
2024/02/23 10:30:29;;;;;;;;;;;;;;;19.29;54.92;100566.72;7386637;19;1467;-76
2024/02/23 10:32:59;;;;;;;;;;;;;;;19.28;55.13;100575.78;7386928;19;1400;-77
2024/02/23 10:35:27;;;;;;;;;;;;;;;19.27;55.05;100561.50;7387686;19;1844;-76
2024/02/23 10:37:57;;;;;;;;;;;;;;;19.26;55.10;100557.16;7388290;19;1593;-76
2024/02/23 10:40:31;;;;;;;;;;;;;;;19.61;54.46;100555.66;7384966;19;1704;-76
2024/02/23 10:42:59;;;;;;;;;;;;;;;19.85;53.82;100565.09;7388813;19;1620;-76
2024/02/23 10:45:28;;;;;;;;;;;;;;;19.57;54.55;100562.31;7391294;19;1852;-76
2024/02/23 10:47:58;;;;;;;;;;;;;;;19.51;54.77;100556.69;7391201;19;1778;-76
2024/02/23 10:50:26;;;;;;;;;;;;;;;19.51;54.86;100556.69;7389007;19;1572;-77
2024/02/23 10:52:56;;;;;;;;;;;;;;;19.40;54.87;100555.03;7392974;19;1507;-77
2024/02/23 10:55:25;;;;;;;;;;;;;;;19.39;55.08;100553.31;7390968;19;1711;-76
2024/02/23 10:57:58;;;;;;;;;;;;;;;19.36;55.10;100554.44;7391746;19;1717;-76
2024/02/23 11:00:27;;;;;;;;;;;;;;;19.35;55.18;100560.78;7390106;19;1271;-76
2024/02/23 11:02:57;;;;;;;;;;;;;;;19.77;54.41;100552.41;7391184;19;2010;-76
2024/02/23 11:05:26;;;;;;;;;;;;;;;19.64;54.58;100546.50;7391853;19;1856;-75
2024/02/23 11:07:58;;;;;;;;;;;;;;;19.45;55.22;100550.91;7393012;19;1017;-76
2024/02/23 11:10:28;;;;;;;;;;;;;;;19.43;55.12;100557.41;7391513;19;1580;-76
2024/02/23 11:13:10;;;;;;;;;;;;;;;19.38;55.15;100552.47;7391039;19;1828;-76
2024/02/23 11:15:44;;;;;;;;;;;;;;;19.34;55.36;100544.84;7375227;19;1886;-76
2024/02/23 11:18:25;;;;;;;;;;;;;;;19.26;55.49;100543.75;7391896;19;1778;-76
2024/02/23 11:20:56;;;;;;;;;;;;;;;19.22;55.82;100553.06;7391175;19;1633;-76
2024/02/23 11:23:25;;;;;;;;;;;;;;;19.59;55.08;100543.41;7388301;19;1394;-76
2024/02/23 11:26:08;;;;;;;;;;;;;;;19.65;54.59;100532.91;7390021;19;1821;-76
2024/02/23 11:28:44;;;;;;;;;;;;;;;19.50;55.16;100536.19;7390669;19;1406;-76
2024/02/23 11:31:16;;;;;;;;;;;;;;;19.38;55.55;100524.81;7390891;19;1494;-76
2024/02/23 11:33:51;;;;;;;;;;;;;;;19.32;55.48;100531.59;7389365;19;1417;-76
2024/02/23 11:36:26;;;;;;;;;;;;;;;19.25;55.82;100509.03;7393827;19;1232;-76
2024/02/23 11:38:55;;;;;;;;;;;;;;;19.25;55.68;100539.34;7395535;19;1007;-76
2024/02/23 11:41:24;;;;;;;;;;;;;;;19.18;55.73;100538.25;7394374;19;1598;-76
2024/02/23 11:43:55;;;;;;;;;;;;;;;19.41;55.41;100513.78;7395591;19;1833;-76
2024/02/23 11:46:24;;;;;;;;;;;;;;;19.77;54.82;100520.22;7392697;19;1860;-77
2024/02/23 11:48:54;;;;;;;;;;;;;;;19.49;55.27;100527.31;7398235;19;1102;-77
2024/02/23 11:51:23;;;;;;;;;;;;;;;19.41;55.52;100514.63;7393501;19;2478;-76
2024/02/23 11:53:51;;;;;;;;;;;;;;;19.27;55.65;100505.19;7396854;19;1689;-76
2024/02/23 11:56:20;;;;;;;;;;;;;;;19.22;55.59;100498.59;7395920;19;1832;-76
2024/02/23 11:58:49;;;;;;;;;;;;;;;19.28;55.34;100503.38;7395630;19;1940;-76
2024/02/23 12:01:21;;;;;;;;;;;;;;;19.22;55.50;100502.13;7393662;19;1829;-76
2024/02/23 12:03:50;;;;;;;;;;;;;;;19.25;55.74;100517.06;7396647;19;1251;-76
2024/02/23 12:06:19;;;;;;;;;;;;;;;19.66;54.67;100490.88;7393542;19;1858;-76
2024/02/23 12:08:49;;;;;;;;;;;;;;;19.61;54.94;100495.81;7395543;19;1211;-76
2024/02/23 12:11:17;;;;;;;;;;;;;;;19.42;55.27;100481.47;7397077;19;1484;-76
2024/02/23 12:13:46;;;;;;;;;;;;;;;19.40;55.35;100491.50;7396291;19;1258;-76
2024/02/23 12:16:15;;;;;;;;;;;;;;;19.29;55.87;100502.38;7382345;19;1541;-76
2024/02/23 12:18:46;;;;;;;;;;;;;;;19.15;56.19;100478.72;7394900;19;1342;-76
2024/02/23 12:21:14;;;;;;;;;;;;;;;19.11;56.33;100488.88;7395079;19;1566;-76
2024/02/23 12:23:43;;;;;;;;;;;;;;;19.10;56.35;100483.63;7393406;19;1196;-76
2024/02/23 12:26:13;;;;;;;;;;;;;;;19.19;56.02;100496.19;7393347;19;1861;-76
2024/02/23 12:28:41;;;;;;;;;;;;;;;19.34;56.24;100492.09;7390341;19;1543;-74
2024/02/23 12:31:09;;;;;;;;;;;;;;;19.77;55.28;100488.00;7394052;19;1495;-74
2024/02/23 12:33:39;;;;;;;;;;;;;;;19.55;55.60;100496.41;7397104;19;1122;-77
2024/02/23 12:36:11;;;;;;;;;;;;;;;19.37;55.95;100491.78;7394574;19;1421;-77
2024/02/23 12:38:39;;;;;;;;;;;;;;;19.33;56.00;100498.41;7397499;19;1567;-76
2024/02/23 12:41:08;;;;;;;;;;;;;;;19.16;56.52;100483.94;7397439;19;1944;-77
2024/02/23 12:43:36;;;;;;;;;;;;;;;19.10;56.83;100491.69;7393372;19;1550;-77
2024/02/23 12:46:04;;;;;;;;;;;;;;;19.16;56.65;100485.75;7391756;19;1854;-76
2024/02/23 12:48:33;;;;;;;;;;;;;;;19.37;56.19;100497.13;7392660;19;1409;-77
2024/02/23 12:51:01;;;;;;;;;;;;;;;19.99;54.53;100481.41;7393318;19;1263;-76
2024/02/23 12:53:37;;;;;;;;;;;;;;;20.57;52.87;100474.88;7391466;19;1243;-76
2024/02/23 12:56:07;;;;;;;;;;;;;;;20.70;52.71;100469.13;7392866;19;1641;-76
2024/02/23 12:58:36;;;;;;;;;;;;;;;20.50;53.56;100473.78;7391098;19;1340;-76